09:04
Airports
History
Links
Donate
Help keep this website running!
PayPal
Bitcoin
This page is community maintained. The information is intended for PC simulator navigation or reference.
Always use approved charts for navigation.
SBCR
CORUMBA INTL
CORUMBA INTL (SBCR)
Corumbá, Mato Grosso do Sul, Brazil (79333)
(C)
Lat/Lng:19° 0' 42.95" S / 57° 40' 22.99" W
-19.011931 / -57.673052
Elevation:461'ft / 141mMSL
ID / ICAO:SBCR
Runways:1
Longest:09-27
Asphalt 1,996m / 6,547ft
Controlled:Yes
METAR23:00 GMT 2018-01-19
Altimeter: 29.83
Visibility: 6.2 statute miles
Wind: 6 knots (from 160°)
Temp: 26°c / 79°f
Humidity: 88.8%

METAR: SBCR 192300Z 16006KT 9999 SCT030 26/24 Q1010

(Powered by phpweather)
Airport Radio Frequencies
Tower: 119.5
Approach: 119.5
Runway 09 / 27
Dimensions:1995.6 x 45.1m 6547' x 148'ft
Surface:Asphalt
Edge Lights:Low intensity
Runway 09 [A]Runway 27 [B]
Heading:074°TH 254°TH
Lat:
Lng:
19° 0' 51.54"S
57° 40' 56.02"W
19° 0' 34.36"S
57° 39' 49.95"W
User Notes and Comments
19° 0' 42.95" S / 57° 40' 22.99" W
Distance To
Airport ID:
Nearby Airports
VFR Chart
Flight Planning at SkyVector.com